createdAt,value
2022-11-28T00:00:39.904Z,58.65
2022-11-28T00:03:11.937Z,60.20
2022-11-28T00:05:46.923Z,60.55
2022-11-28T00:08:14.660Z,57.62
2022-11-28T00:10:45.215Z,53.15
2022-11-28T00:13:15.728Z,55.67
2022-11-28T00:15:46.359Z,54.75
2022-11-28T00:18:16.859Z,55.03
2022-11-28T00:20:48.448Z,53.35
2022-11-28T00:23:20.181Z,53.80
2022-11-28T00:26:02.113Z,48.98
2022-11-28T00:28:32.816Z,49.38
2022-11-28T00:31:03.760Z,47.03
2022-11-28T00:33:35.121Z,48.48
2022-11-28T00:36:07.002Z,47.70
2022-11-28T00:38:37.703Z,49.13
2022-11-28T00:41:17.070Z,46.60
2022-11-28T00:43:48.888Z,44.50
2022-11-28T00:46:21.484Z,46.10
2022-11-28T00:48:52.382Z,45.17
2022-11-28T00:51:30.991Z,46.10
2022-11-28T00:54:03.508Z,43.73
2022-11-28T00:56:36.934Z,43.55
2022-11-28T00:59:08.252Z,44.63
2022-11-28T01:01:41.958Z,43.10
2022-11-28T01:04:15.211Z,48.28
2022-11-28T01:06:48.440Z,42.88
2022-11-28T01:09:22.254Z,41.60
2022-11-28T01:11:55.110Z,40.73
2022-11-28T01:14:27.238Z,40.60
2022-11-28T01:16:58.837Z,38.65
2022-11-28T01:19:30.600Z,40.03
2022-11-28T01:22:01.063Z,36.98
2022-11-28T01:24:31.536Z,41.50
2022-11-28T01:27:01.997Z,41.95
2022-11-28T01:29:32.469Z,37.17
2022-11-28T01:32:02.996Z,39.95
2022-11-28T01:34:33.557Z,38.00
2022-11-28T01:37:04.025Z,38.20
2022-11-28T01:39:34.548Z,38.55
2022-11-28T01:42:05.312Z,40.35
2022-11-28T01:44:41.830Z,40.88
2022-11-28T01:47:13.753Z,45.08
2022-11-28T01:49:45.800Z,38.88
2022-11-28T01:52:20.728Z,32.70
2022-11-28T01:54:54.559Z,34.70
2022-11-28T01:57:26.956Z,36.30
2022-11-28T02:00:00.451Z,34.30
2022-11-28T02:02:39.818Z,36.05
2022-11-28T02:05:10.620Z,41.02
2022-11-28T02:07:44.303Z,41.60
2022-11-28T02:10:17.797Z,36.70
2022-11-28T02:13:08.200Z,36.88
2022-11-28T02:15:44.390Z,36.77
2022-11-28T02:18:25.106Z,32.55
2022-11-28T02:21:02.740Z,29.85
2022-11-28T02:23:51.709Z,32.10
2022-11-28T02:26:36.881Z,32.55
2022-11-28T02:29:16.364Z,33.08
2022-11-28T02:32:01.701Z,34.55
2022-11-28T02:34:52.059Z,34.80
2022-11-28T02:37:25.762Z,36.05
2022-11-28T02:40:17.218Z,32.03
2022-11-28T02:43:05.908Z,32.75
2022-11-28T02:46:00.628Z,39.03
2022-11-28T02:48:42.920Z,32.53
2022-11-28T02:51:31.366Z,35.45
2022-11-28T02:54:05.151Z,31.77
2022-11-28T02:56:37.213Z,31.35
2022-11-28T02:59:11.838Z,32.03
2022-11-28T03:01:42.798Z,27.30
2022-11-28T03:04:25.353Z,35.65
2022-11-28T03:07:10.930Z,34.38
2022-11-28T03:10:03.767Z,31.60
2022-11-28T03:12:39.975Z,36.28
2022-11-28T03:15:13.391Z,40.12
2022-11-28T03:18:09.655Z,32.40
2022-11-28T03:23:29.046Z,32.53
2022-11-28T03:26:08.751Z,32.70
2022-11-28T03:28:52.291Z,32.35
2022-11-28T03:31:34.436Z,32.03
2022-11-28T03:34:08.214Z,30.82
2022-11-28T03:36:44.269Z,29.07
2022-11-28T03:39:17.752Z,35.45
2022-11-28T03:41:52.496Z,34.65
2022-11-28T03:44:31.591Z,30.75
2022-11-28T03:47:04.220Z,31.42
2022-11-28T03:49:40.238Z,37.90
2022-11-28T03:52:17.467Z,32.23
2022-11-28T03:54:57.085Z,31.70
2022-11-28T03:57:36.379Z,32.15
2022-11-28T04:00:10.770Z,31.60
2022-11-28T04:02:59.153Z,33.80
2022-11-28T04:05:35.231Z,37.42
2022-11-28T04:08:17.658Z,34.45
2022-11-28T04:11:06.252Z,37.83
2022-11-28T04:13:43.518Z,37.35
2022-11-28T04:16:38.636Z,37.75
2022-11-28T04:19:33.314Z,38.58
2022-11-28T04:22:12.369Z,41.55
2022-11-28T04:24:45.835Z,39.25
2022-11-28T04:27:19.610Z,38.98
2022-11-28T04:29:53.263Z,41.00
2022-11-28T04:32:26.073Z,44.18
2022-11-28T04:35:02.335Z,43.85
2022-11-28T04:37:35.651Z,45.43
2022-11-28T04:40:09.173Z,43.60
2022-11-28T04:42:42.581Z,44.50
2022-11-28T04:45:28.227Z,41.98
2022-11-28T04:50:31.934Z,41.42
2022-11-28T04:53:08.405Z,44.25
2022-11-28T04:55:44.788Z,46.85
2022-11-28T04:58:20.725Z,50.45
2022-11-28T05:00:54.580Z,45.28
2022-11-28T05:03:28.192Z,45.70
2022-11-28T05:05:58.710Z,45.20
2022-11-28T05:08:29.410Z,49.00
2022-11-28T05:10:59.884Z,48.68
2022-11-28T05:13:30.325Z,53.17
2022-11-28T05:16:03.616Z,52.67
2022-11-28T05:18:35.223Z,57.97
2022-11-28T05:21:07.557Z,56.90
2022-11-28T05:23:40.253Z,52.98
2022-11-28T05:26:15.897Z,59.27
2022-11-28T05:28:49.885Z,60.30
2022-11-28T05:31:23.229Z,53.38
2022-11-28T05:33:56.631Z,61.92
2022-11-28T05:36:33.807Z,57.73
2022-11-28T05:39:09.516Z,62.10
2022-11-28T05:41:42.551Z,54.80
2022-11-28T05:44:16.249Z,54.75
2022-11-28T05:46:51.835Z,57.88
2022-11-28T05:49:27.138Z,56.80
2022-11-28T05:51:59.206Z,57.48
2022-11-28T05:54:32.960Z,59.55
2022-11-28T05:57:08.049Z,55.50
2022-11-28T05:59:39.547Z,53.75
2022-11-28T06:02:13.168Z,56.88
2022-11-28T06:04:44.803Z,51.95
2022-11-28T06:07:20.284Z,56.23
2022-11-28T06:09:51.457Z,59.20
2022-11-28T06:12:25.226Z,59.63
2022-11-28T06:14:57.329Z,58.58
2022-11-28T06:17:31.180Z,60.85
2022-11-28T06:20:03.962Z,56.45
2022-11-28T06:22:46.943Z,53.05
2022-11-28T06:25:19.319Z,55.90
2022-11-28T06:27:52.869Z,58.95
2022-11-28T06:30:31.069Z,58.03
2022-11-28T06:33:04.013Z,60.80
2022-11-28T06:35:37.412Z,60.17
2022-11-28T06:38:14.391Z,59.13
2022-11-28T06:40:45.406Z,60.75
2022-11-28T06:43:19.361Z,58.98
2022-11-28T06:45:54.565Z,58.42
2022-11-28T06:48:27.135Z,59.35
2022-11-28T06:51:08.582Z,54.95
2022-11-28T06:53:40.652Z,54.58
2022-11-28T06:56:17.801Z,54.08
2022-11-28T06:58:52.680Z,55.88
2022-11-28T07:01:26.508Z,54.05
2022-11-28T07:03:59.747Z,54.53
2022-11-28T07:06:41.020Z,54.15
2022-11-28T07:09:14.190Z,52.65
2022-11-28T07:11:49.658Z,52.75
2022-11-28T07:14:22.245Z,53.10
2022-11-28T07:16:54.995Z,51.42
2022-11-28T07:19:33.250Z,54.98
2022-11-28T07:22:05.156Z,57.15
2022-11-28T07:24:36.542Z,53.63
2022-11-28T07:27:08.324Z,56.77
2022-11-28T07:29:40.504Z,66.20
2022-11-28T07:32:12.701Z,71.12
2022-11-28T07:34:49.882Z,69.95
2022-11-28T07:37:19.986Z,86.63
2022-11-28T07:39:55.609Z,72.97
2022-11-28T07:42:26.314Z,76.17
2022-11-28T07:44:58.141Z,65.32
2022-11-28T07:47:30.725Z,54.33
2022-11-28T07:50:01.287Z,54.27
2022-11-28T07:52:31.719Z,51.45
2022-11-28T07:55:02.252Z,68.00
2022-11-28T07:57:32.842Z,65.25
2022-11-28T08:00:03.500Z,67.75
2022-11-28T08:02:34.885Z,59.95
2022-11-28T08:05:05.444Z,52.95
2022-11-28T08:07:36.056Z,52.05
2022-11-28T08:10:07.959Z,54.73
2022-11-28T08:12:39.423Z,52.60
2022-11-28T08:15:11.412Z,50.30
2022-11-28T08:17:41.938Z,47.58
2022-11-28T08:20:12.849Z,50.95
2022-11-28T08:22:43.380Z,52.83
2022-11-28T08:25:13.842Z,56.35
2022-11-28T08:27:44.825Z,57.33
2022-11-28T08:30:15.914Z,55.05
2022-11-28T08:32:47.547Z,55.63
2022-11-28T08:35:19.250Z,51.40
2022-11-28T08:37:51.182Z,50.25
2022-11-28T08:40:21.646Z,51.25
2022-11-28T08:42:52.243Z,51.28
2022-11-28T08:45:22.735Z,52.40
2022-11-28T08:47:53.165Z,50.92
2022-11-28T08:50:23.632Z,51.35
2022-11-28T08:52:54.143Z,52.03
2022-11-28T08:55:32.338Z,52.80
2022-11-28T08:57:58.018Z,54.40
2022-11-28T09:00:29.614Z,53.95
2022-11-28T09:03:00.365Z,53.73
2022-11-28T09:05:32.167Z,56.70
2022-11-28T09:08:02.673Z,49.00
2022-11-28T09:10:34.574Z,49.53
2022-11-28T09:13:05.814Z,46.58
2022-11-28T09:15:36.498Z,43.28
2022-11-28T09:18:07.141Z,44.42
2022-11-28T09:20:37.718Z,46.35
2022-11-28T09:23:08.998Z,50.10
2022-11-28T09:25:40.601Z,42.65
2022-11-28T09:28:11.117Z,39.45
2022-11-28T09:30:41.647Z,38.70
2022-11-28T09:33:13.574Z,36.23
2022-11-28T09:35:44.080Z,36.35
2022-11-28T09:38:14.488Z,39.98
2022-11-28T09:40:45.880Z,36.00
2022-11-28T09:43:22.106Z,38.35
2022-11-28T09:45:56.540Z,35.85
2022-11-28T09:48:45.098Z,36.77
2022-11-28T09:51:34.947Z,39.03
2022-11-28T09:54:23.223Z,39.38
2022-11-28T09:56:53.668Z,37.65
2022-11-28T09:59:29.882Z,38.98
2022-11-28T10:02:15.727Z,37.93
2022-11-28T10:05:10.201Z,34.08
2022-11-28T10:07:43.754Z,34.70
2022-11-28T10:10:26.175Z,32.45
2022-11-28T10:13:04.630Z,38.63
2022-11-28T10:15:44.177Z,36.33
2022-11-28T10:18:30.569Z,39.63
2022-11-28T10:21:07.840Z,41.35
2022-11-28T10:23:46.570Z,38.38
2022-11-28T10:26:40.240Z,35.85
2022-11-28T10:29:25.477Z,35.10
2022-11-28T10:32:00.124Z,32.58
2022-11-28T10:34:33.780Z,33.70
2022-11-28T10:37:22.240Z,32.25
2022-11-28T10:39:53.579Z,32.58
2022-11-28T10:42:30.981Z,30.92
2022-11-28T10:45:16.767Z,34.83
2022-11-28T10:47:55.958Z,34.45
2022-11-28T10:50:33.880Z,35.00
2022-11-28T10:53:16.582Z,34.98
2022-11-28T10:55:55.812Z,32.67
2022-11-28T10:58:29.236Z,34.00
2022-11-28T11:01:01.007Z,29.32
2022-11-28T11:03:35.998Z,33.75
2022-11-28T11:06:06.579Z,31.80
2022-11-28T11:08:42.018Z,32.08
2022-11-28T11:14:04.065Z,36.63
2022-11-28T11:16:59.839Z,37.67
2022-11-28T11:19:36.209Z,33.25
2022-11-28T11:22:15.137Z,34.30
2022-11-28T11:24:45.938Z,34.50
2022-11-28T11:27:22.200Z,33.63
2022-11-28T11:29:55.718Z,35.38
2022-11-28T11:32:32.355Z,35.43
2022-11-28T11:35:03.339Z,34.90
2022-11-28T11:37:36.864Z,31.97
2022-11-28T11:40:22.706Z,31.85
2022-11-28T11:43:00.000Z,28.02
2022-11-28T11:45:34.483Z,33.60
2022-11-28T11:48:06.132Z,31.37
2022-11-28T11:50:38.282Z,29.70
2022-11-28T11:53:14.294Z,30.43
2022-11-28T11:55:58.645Z,30.35
2022-11-28T11:58:44.992Z,30.35
2022-11-28T12:01:18.552Z,32.67
2022-11-28T12:03:58.341Z,33.48
2022-11-28T12:06:37.070Z,32.10
2022-11-28T12:09:19.371Z,31.23
2022-11-28T12:11:52.840Z,35.35
2022-11-28T12:14:34.880Z,36.13
2022-11-28T12:17:40.423Z,36.90
2022-11-28T12:20:07.695Z,38.75
2022-11-28T12:22:57.866Z,37.17
2022-11-28T12:25:40.381Z,31.82
2022-11-28T12:28:26.856Z,35.35
2022-11-28T12:31:06.375Z,35.92
2022-11-28T12:34:16.661Z,33.58
2022-11-28T12:37:03.376Z,32.05
2022-11-28T12:39:42.341Z,32.35
2022-11-28T12:42:15.968Z,34.55
2022-11-28T12:45:05.991Z,34.23
2022-11-28T12:47:45.047Z,36.23
2022-11-28T12:50:34.131Z,36.35
2022-11-28T12:53:29.549Z,35.83
2022-11-28T12:56:13.058Z,37.38
2022-11-28T12:58:49.161Z,36.63
2022-11-28T13:01:37.444Z,36.42
2022-11-28T13:04:30.152Z,36.30
2022-11-28T13:07:06.341Z,35.63
2022-11-28T13:09:39.807Z,35.95
2022-11-28T13:12:23.033Z,34.20
2022-11-28T13:14:59.195Z,35.40
2022-11-28T13:17:53.481Z,34.35
2022-11-28T13:20:29.592Z,29.82
2022-11-28T13:23:22.120Z,31.87
2022-11-28T13:26:16.307Z,28.40
2022-11-28T13:28:55.621Z,33.15
2022-11-28T13:31:41.192Z,30.52
2022-11-28T13:34:20.377Z,32.38
2022-11-28T13:39:50.443Z,43.83
2022-11-28T13:42:59.699Z,49.05
2022-11-28T13:45:34.299Z,39.75
2022-11-28T13:51:31.122Z,44.38
2022-11-28T13:54:20.539Z,47.20
2022-11-28T13:57:10.431Z,45.78
2022-11-28T13:59:43.617Z,37.48
2022-11-28T14:02:22.946Z,35.95
2022-11-28T14:04:53.748Z,33.83
2022-11-28T14:07:33.234Z,37.42
2022-11-28T14:10:31.204Z,37.88
2022-11-28T14:13:04.590Z,34.43
2022-11-28T14:15:43.875Z,46.10
2022-11-28T14:18:55.181Z,39.50
2022-11-28T14:21:11.617Z,37.55
2022-11-28T14:23:50.675Z,43.52
2022-11-28T14:26:33.879Z,50.63
2022-11-28T14:29:07.810Z,40.40
2022-11-28T14:31:50.929Z,36.40
2022-11-28T14:36:45.956Z,32.73
2022-11-28T14:39:20.495Z,32.60
2022-11-28T14:42:10.102Z,34.40
2022-11-28T14:45:06.737Z,34.95
2022-11-28T14:47:36.771Z,36.08
2022-11-28T14:50:10.661Z,36.60
2022-11-28T14:52:48.295Z,35.98
2022-11-28T14:55:26.945Z,35.78
2022-11-28T14:58:02.853Z,32.38
2022-11-28T15:00:43.561Z,33.98
2022-11-28T15:03:17.004Z,31.10
2022-11-28T15:05:55.756Z,31.55
2022-11-28T15:08:52.526Z,31.70
2022-11-28T15:11:38.293Z,33.92
2022-11-28T15:16:54.937Z,36.75
2022-11-28T15:19:31.324Z,33.88
2022-11-28T15:22:03.170Z,36.17
2022-11-28T15:24:39.190Z,34.05
2022-11-28T15:27:12.626Z,38.20
2022-11-28T15:29:43.094Z,33.90
2022-11-28T15:32:16.761Z,36.35
2022-11-28T15:34:50.167Z,34.25
2022-11-28T15:37:23.105Z,39.48
2022-11-28T15:39:53.729Z,37.65
2022-11-28T15:42:30.234Z,39.05
2022-11-28T15:45:06.325Z,42.25
2022-11-28T15:47:39.222Z,39.48
2022-11-28T15:50:17.245Z,39.70
2022-11-28T15:52:57.179Z,40.40
2022-11-28T15:55:30.891Z,43.68
2022-11-28T15:58:29.674Z,43.08
2022-11-28T16:01:05.896Z,45.65
2022-11-28T16:03:45.169Z,44.08
2022-11-28T16:06:16.190Z,47.65
2022-11-28T16:08:52.670Z,45.73
2022-11-28T16:11:26.160Z,49.10
2022-11-28T16:13:59.285Z,48.33
2022-11-28T16:16:33.011Z,50.10
2022-11-28T16:19:08.541Z,51.58
2022-11-28T16:21:53.838Z,47.85
2022-11-28T16:24:27.609Z,48.63
2022-11-28T16:27:00.632Z,47.35
2022-11-28T16:29:35.033Z,45.60
2022-11-28T16:32:11.635Z,47.07
2022-11-28T16:34:53.146Z,49.10
2022-11-28T16:37:27.106Z,43.85
2022-11-28T16:40:23.639Z,50.23
2022-11-28T16:42:56.513Z,49.83
2022-11-28T16:45:32.837Z,48.25
2022-11-28T16:48:13.668Z,53.13
2022-11-28T16:53:49.532Z,52.13
2022-11-28T16:56:28.236Z,50.40
2022-11-28T16:59:16.137Z,48.92
2022-11-28T17:01:49.426Z,48.95
2022-11-28T17:04:28.714Z,52.13
2022-11-28T17:07:05.648Z,59.33
2022-11-28T17:09:37.664Z,55.40
2022-11-28T17:12:11.117Z,55.45
2022-11-28T17:14:41.597Z,52.78
2022-11-28T17:17:17.653Z,54.70
2022-11-28T17:19:48.361Z,53.55
2022-11-28T17:22:22.011Z,53.13
2022-11-28T17:24:55.204Z,48.60
2022-11-28T17:27:25.690Z,48.55
2022-11-28T17:29:56.274Z,49.77
2022-11-28T17:32:28.074Z,53.25
2022-11-28T17:35:01.492Z,48.42
2022-11-28T17:37:32.080Z,48.85
2022-11-28T17:40:20.815Z,50.15
2022-11-28T17:42:52.774Z,46.80
2022-11-28T17:45:24.595Z,46.40
2022-11-28T17:47:55.191Z,48.63
2022-11-28T17:50:25.690Z,48.10
2022-11-28T17:52:56.223Z,49.40
2022-11-28T17:55:26.743Z,48.68
2022-11-28T17:57:57.168Z,46.77
2022-11-28T18:00:29.661Z,49.00
2022-11-28T18:03:00.164Z,50.52
2022-11-28T18:05:30.640Z,47.25
2022-11-28T18:08:01.220Z,44.95
2022-11-28T18:10:31.736Z,45.05
2022-11-28T18:13:02.298Z,47.35
2022-11-28T18:15:35.300Z,45.48
2022-11-28T18:18:06.022Z,45.95
2022-11-28T18:20:38.203Z,44.00
2022-11-28T18:23:12.667Z,44.73
2022-11-28T18:25:44.637Z,44.80
2022-11-28T18:28:19.005Z,45.85
2022-11-28T18:30:49.231Z,42.98
2022-11-28T18:33:19.763Z,43.00
2022-11-28T18:35:50.223Z,44.15
2022-11-28T18:38:20.723Z,42.83
2022-11-28T18:40:51.686Z,42.35
2022-11-28T18:43:22.181Z,42.80
2022-11-28T18:45:52.650Z,43.33
2022-11-28T18:48:23.141Z,43.20
2022-11-28T18:50:53.527Z,45.03
2022-11-28T18:53:24.028Z,47.08
2022-11-28T18:56:05.078Z,45.65
2022-11-28T18:58:38.282Z,44.67
2022-11-28T19:01:14.171Z,46.50
2022-11-28T19:03:47.113Z,42.53
2022-11-28T19:06:19.219Z,43.17
2022-11-28T19:08:51.799Z,39.53
2022-11-28T19:11:22.761Z,41.33
2022-11-28T19:13:53.988Z,42.40
2022-11-28T19:16:27.120Z,41.75
2022-11-28T19:18:58.652Z,39.88
2022-11-28T19:21:32.925Z,40.90
2022-11-28T19:24:03.423Z,39.23
2022-11-28T19:26:34.208Z,42.00
2022-11-28T19:29:05.049Z,39.98
2022-11-28T19:31:38.280Z,39.18
2022-11-28T19:34:17.947Z,41.37
2022-11-28T19:36:51.257Z,39.15
2022-11-28T19:39:24.031Z,37.58
2022-11-28T19:41:57.011Z,39.00
2022-11-28T19:44:29.386Z,39.60
2022-11-28T19:47:01.113Z,39.03
2022-11-28T19:49:31.573Z,41.60
2022-11-28T19:52:02.058Z,43.15
2022-11-28T19:54:32.622Z,42.83
2022-11-28T19:57:03.172Z,38.40
2022-11-28T19:59:33.671Z,39.03
2022-11-28T20:02:06.256Z,41.53
2022-11-28T20:04:37.367Z,41.55
2022-11-28T20:07:07.872Z,42.10
2022-11-28T20:09:38.465Z,40.25
2022-11-28T20:12:09.073Z,38.90
2022-11-28T20:14:39.732Z,40.12
2022-11-28T20:17:10.243Z,41.13
2022-11-28T20:19:41.057Z,39.98
2022-11-28T20:22:12.052Z,43.25
2022-11-28T20:24:43.790Z,39.10
2022-11-28T20:27:14.297Z,42.27
2022-11-28T20:29:45.177Z,42.38
2022-11-28T20:32:15.915Z,43.17
2022-11-28T20:34:46.909Z,41.58
2022-11-28T20:37:17.428Z,44.88
2022-11-28T20:39:48.512Z,42.13
2022-11-28T20:42:19.411Z,44.18
2022-11-28T20:44:49.934Z,42.40
2022-11-28T20:47:20.518Z,45.95
2022-11-28T20:49:50.968Z,42.25
2022-11-28T20:52:21.555Z,42.30
2022-11-28T20:54:52.267Z,46.77
2022-11-28T20:57:22.908Z,43.65
2022-11-28T20:59:55.039Z,41.55
2022-11-28T21:02:25.764Z,45.05
2022-11-28T21:04:56.523Z,44.95
2022-11-28T21:07:27.132Z,42.17
2022-11-28T21:09:59.633Z,44.90
2022-11-28T21:12:31.403Z,44.27
2022-11-28T21:15:02.171Z,41.53
2022-11-28T21:17:33.494Z,44.83
2022-11-28T21:20:04.499Z,42.78
2022-11-28T21:22:35.023Z,43.98
2022-11-28T21:25:05.761Z,45.30
2022-11-28T21:27:36.287Z,44.13
2022-11-28T21:30:09.015Z,44.10
2022-11-28T21:32:39.554Z,44.13
2022-11-28T21:35:10.447Z,45.40
2022-11-28T21:37:40.970Z,44.75
2022-11-28T21:40:12.534Z,44.85
2022-11-28T21:42:43.038Z,44.13
2022-11-28T21:45:13.565Z,46.25
2022-11-28T21:47:44.274Z,43.87
2022-11-28T21:50:15.494Z,44.00
2022-11-28T21:52:46.735Z,46.83
2022-11-28T21:55:17.366Z,41.68
2022-11-28T21:57:47.895Z,40.55
2022-11-28T22:00:45.609Z,44.60
2022-11-28T22:02:51.968Z,44.93
2022-11-28T22:05:24.583Z,43.63
2022-11-28T22:07:55.221Z,42.73
2022-11-28T22:10:25.913Z,42.38
2022-11-28T22:12:56.543Z,44.40
2022-11-28T22:15:27.249Z,42.35
2022-11-28T22:17:58.088Z,43.78
2022-11-28T22:20:28.990Z,38.53
2022-11-28T22:22:59.678Z,41.13
2022-11-28T22:25:30.305Z,39.92
2022-11-28T22:28:02.808Z,38.83
2022-11-28T22:30:33.807Z,37.80
2022-11-28T22:33:04.767Z,39.30
2022-11-28T22:35:36.897Z,37.15
2022-11-28T22:38:11.502Z,29.40
2022-11-28T22:40:48.939Z,36.75
2022-11-28T22:43:21.411Z,38.50
2022-11-28T22:46:05.053Z,37.45
2022-11-28T22:48:38.999Z,39.23
2022-11-28T22:51:20.432Z,36.80
2022-11-28T22:53:56.647Z,37.45
2022-11-28T22:56:35.775Z,38.10
2022-11-28T22:59:10.399Z,35.25
2022-11-28T23:01:45.261Z,36.48
2022-11-28T23:04:20.518Z,34.92
2022-11-28T23:09:28.621Z,36.28
2022-11-28T23:12:05.167Z,40.25
2022-11-28T23:14:41.785Z,35.28
2022-11-28T23:17:14.633Z,33.65
2022-11-28T23:19:47.452Z,33.55
2022-11-28T23:22:24.372Z,36.85
2022-11-28T23:24:56.379Z,37.90
2022-11-28T23:27:33.206Z,37.33
2022-11-28T23:30:17.017Z,35.30
2022-11-28T23:32:48.260Z,36.50
2022-11-28T23:35:20.001Z,34.98
2022-11-28T23:37:50.634Z,37.55
2022-11-28T23:40:23.399Z,37.75
2022-11-28T23:42:56.570Z,36.70
2022-11-28T23:45:27.369Z,36.03
2022-11-28T23:47:59.019Z,34.55
2022-11-28T23:50:29.663Z,33.98
2022-11-28T23:53:00.192Z,36.95
2022-11-28T23:55:30.870Z,37.15
2022-11-28T23:58:01.411Z,35.65
